Flight Track Log - Related Links

Times and Time Zones

All times are in EDT time to prevent confusion due to time zone crossing. See the PDT4373 flight status page for this flight to view local times or setup timezone preferences in your user account.

Time Position Orientation Groundspeed Altitude Reporting Facility
EDT Latitude Longitude Course Direction KTS MPH feet Rate Location/Type
Wed 09:54:03 AM 39.8833 -75.2167 294° West 113 130 500  Level Philadelphia TRACON
Wed 09:55:09 AM 39.9167 -75.1833 37° Northeast 113 130 2,300 1,400 Climbing Philadelphia TRACON
Wed 09:56:00 AM 40.0653 -75.2999 303° West  Level Estimated
Wed 09:56:03 AM 39.9333 -75.1667 37° Northeast 128 147 3,300  Level Philadelphia TRACON
Wed 09:57:00 AM 40.1296 -75.3197 311° West  Level Estimated
Wed 09:57:03 AM 39.9833 -75.1667 360° North 163 188 4,500  Level Philadelphia TRACON
Wed 09:58:00 AM 40.1940 -75.3395 311° West  Level Estimated
Wed 09:58:09 AM 40.0167 -75.1833 339° North 156 180 6,200  Level Philadelphia TRACON
Wed 09:58:57 AM 40.0500 -75.2000 339° North 163 188 7,100 944 Climbing Philadelphia TRACON
Wed 09:59:00 AM 40.2210 -75.4184 294° West  Level FlightAware Approximate
Wed 09:59:57 AM 40.0667 -75.2667 288° West 190 219 7,900  Level Philadelphia TRACON
Wed 10:02:27 AM 40.1550 -75.4258 306° West 230 265 9,000 314 Climbing New York Center
Wed 10:03:27 AM 40.1914 -75.5069 300° West 249 287 9,000  Level New York Center
Wed 10:04:27 AM 40.2364 -75.5781 310° West 262 302 9,000 450 Level New York Center
Wed 10:05:27 AM 40.2839 -75.6411 315° West 255 293 9,900 1,050 Climbing New York Center
Wed 10:06:27 AM 40.3128 -75.7006 303° West 230 265 11,100 1,100 Climbing New York Center
Wed 10:07:27 AM 40.3475 -75.7628 306° West 219 252 12,100 1,050 Climbing New York Center
Wed 10:08:27 AM 40.3911 -75.8206 315° West 209 241 13,200 950 Climbing New York Center
Wed 10:09:27 AM 40.4281 -75.8778 310° West 204 235 14,000 400 Climbing New York Center
Wed 10:10:27 AM 40.4714 -75.9383 313° West 221 254 14,000  Level New York Center
Wed 10:11:27 AM 40.5139 -76.0125 307° West 240 276 14,000  Level New York Center
Wed 10:12:27 AM 40.5589 -76.0814 311° West 247 284 14,000  Level New York Center
Wed 10:13:27 AM 40.6000 -76.1419 312° West 247 284 14,000  Level New York Center
Wed 10:14:27 AM 40.6525 -76.2228 311° West 252 290 14,000  Level New York Center
Wed 10:15:27 AM 40.7114 -76.2519 339° North 229 264 14,000  Level New York Center
Wed 10:16:27 AM 40.7744 -76.2408 North 217 250 14,000  Level New York Center
Wed 10:17:27 AM 40.8350 -76.2400 North 229 264 14,000  Level New York Center
Wed 10:18:27 AM 40.9019 -76.2372 North 234 269 14,000  Level New York Center
Wed 10:19:27 AM 40.9753 -76.2239 North 239 275 14,000  Level New York Center
Wed 10:20:27 AM 41.0422 -76.2208 North 239 275 14,000  Level New York Center
Wed 10:21:27 AM 41.1069 -76.2150 North 239 275 14,000  Level New York Center
Wed 10:22:27 AM 41.1678 -76.2089 North 239 275 14,000  Level New York Center
Wed 10:23:27 AM 41.2428 -76.2067 North 239 275 14,000  Level New York Center
Wed 10:24:27 AM 41.3100 -76.1983 North 239 275 14,000  Level New York Center
Wed 10:25:27 AM 41.3786 -76.1956 North 239 275 14,000  Level New York Center
Wed 10:26:27 AM 41.4453 -76.1956 360° North 239 275 14,000  Level New York Center
Wed 10:27:27 AM 41.5061 -76.1892 North 239 275 14,000  Level New York Center
Wed 10:28:27 AM 41.5811 -76.1869 North 239 275 14,000 -250 Level New York Center
Wed 10:29:27 AM 41.6503 -76.1786 North 239 275 13,500 -650 Descending New York Center
Wed 10:30:27 AM 41.7233 -76.1736 North 244 281 12,700 -900 Descending New York Center
Wed 10:31:27 AM 41.7903 -76.1678 North 264 304 11,700 -1,200 Descending New York Center
Wed 10:32:27 AM 41.8678 -76.1603 North 277 319 10,300 -1,500 Descending New York Center
Wed 10:33:27 AM 41.9533 -76.1561 North 277 319 8,700 -1,500 Descending New York Center
Wed 10:34:27 AM 42.0250 -76.1339 13° North 272 313 7,300 -1,350 Descending New York Center
Wed 10:35:27 AM 42.0869 -76.0969 24° Northeast 272 313 6,000 -1,200 Descending New York Center
Wed 10:36:27 AM 42.1433 -76.0514 31° Northeast 255 293 4,900 -1,050 Descending New York Center
Wed 10:37:27 AM 42.1914 -76.0439 North 219 252 3,900 -850 Descending New York Center
Wed 10:38:27 AM 42.2278 -76.0692 333° Northwest 152 175 3,200 -600 Descending New York Center
Wed 10:39:27 AM 42.2481 -76.0344 52° Northeast 111 128 2,700 -550 Descending New York Center
Wed 10:40:27 AM 42.2328 -76.0025 123° Southeast 76 87 2,100 -600 Descending New York Center

Login

Don't have an account? Register now (free) for customized features, flight alerts, and more!